createdAt,value
2023-04-05T00:00:09.906Z,101907.19
2023-04-05T00:02:40.653Z,101905.78
2023-04-05T00:05:09.766Z,101905.19
2023-04-05T00:07:38.393Z,101901.91
2023-04-05T00:10:08.190Z,101909.13
2023-04-05T00:12:36.061Z,101915.84
2023-04-05T00:15:04.643Z,101906.63
2023-04-05T00:17:32.954Z,101903.50
2023-04-05T00:20:01.781Z,101899.25
2023-04-05T00:22:35.860Z,101900.94
2023-04-05T00:25:03.489Z,101900.34
2023-04-05T00:27:32.560Z,101904.75
2023-04-05T00:30:01.010Z,101902.34
2023-04-05T00:32:28.766Z,101899.56
2023-04-05T00:34:56.447Z,101909.28
2023-04-05T00:37:24.261Z,101908.66
2023-04-05T00:39:53.740Z,101904.44
2023-04-05T00:42:21.477Z,101906.22
2023-04-05T00:44:50.582Z,101910.72
2023-04-05T00:47:18.354Z,101901.56
2023-04-05T00:49:46.826Z,101899.88
2023-04-05T00:52:16.220Z,101904.53
2023-04-05T00:54:44.551Z,101899.41
2023-04-05T00:57:12.529Z,101900.41
2023-04-05T00:59:40.279Z,101899.66
2023-04-05T01:02:17.972Z,101899.66
2023-04-05T01:04:54.345Z,101896.31
2023-04-05T01:07:27.218Z,101895.56
2023-04-05T01:09:57.777Z,101898.38
2023-04-05T01:12:29.412Z,101892.88
2023-04-05T01:14:57.207Z,101888.25
2023-04-05T01:17:29.157Z,101888.97
2023-04-05T01:20:00.284Z,101885.31
2023-04-05T01:22:50.335Z,101884.13
2023-04-05T01:25:37.785Z,101884.28
2023-04-05T01:28:25.200Z,101877.81
2023-04-05T01:31:03.303Z,101880.59
2023-04-05T01:33:36.353Z,101875.50
2023-04-05T01:36:09.716Z,101873.66
2023-04-05T01:38:40.839Z,101866.13
2023-04-05T01:41:08.680Z,101876.72
2023-04-05T01:43:36.269Z,101863.19
2023-04-05T01:46:05.518Z,101881.34
2023-04-05T01:48:33.455Z,101873.19
2023-04-05T01:51:01.164Z,101884.38
2023-04-05T01:53:28.801Z,101880.97
2023-04-05T01:56:00.915Z,101870.97
2023-04-05T01:58:28.716Z,101864.75
2023-04-05T02:00:56.578Z,101864.16
2023-04-05T02:03:25.847Z,101863.31
2023-04-05T02:05:53.494Z,101864.44
2023-04-05T02:08:21.100Z,101876.13
2023-04-05T02:10:48.701Z,101870.63
2023-04-05T02:13:16.426Z,101878.56
2023-04-05T02:15:49.098Z,101868.69
2023-04-05T02:18:21.749Z,101871.03
2023-04-05T02:20:52.179Z,101867.66
2023-04-05T02:23:20.900Z,101874.88
2023-04-05T02:25:48.548Z,101881.56
2023-04-05T02:28:16.472Z,101879.88
2023-04-05T02:30:44.127Z,101872.88
2023-04-05T02:33:12.634Z,101859.13
2023-04-05T02:35:40.304Z,101872.13
2023-04-05T02:38:09.472Z,101864.84
2023-04-05T02:40:37.593Z,101865.69
2023-04-05T02:43:05.361Z,101856.19
2023-04-05T02:45:33.176Z,101859.00
2023-04-05T02:48:00.997Z,101855.72
2023-04-05T02:50:28.582Z,101859.13
2023-04-05T02:52:56.366Z,101855.25
2023-04-05T02:55:26.001Z,101856.34
2023-04-05T02:57:53.586Z,101855.63
2023-04-05T03:00:22.231Z,101851.25
2023-04-05T03:02:50.447Z,101848.59
2023-04-05T03:05:18.632Z,101847.72
2023-04-05T03:07:46.792Z,101844.69
2023-04-05T03:10:18.605Z,101838.25
2023-04-05T03:12:47.613Z,101841.41
2023-04-05T03:15:15.229Z,101838.38
2023-04-05T03:17:44.219Z,101831.19
2023-04-05T03:20:13.288Z,101835.84
2023-04-05T03:22:41.642Z,101829.03
2023-04-05T03:25:09.582Z,101828.16
2023-04-05T03:27:38.362Z,101827.81
2023-04-05T03:30:08.871Z,101834.13
2023-04-05T03:32:36.509Z,101831.56
2023-04-05T03:35:04.297Z,101825.81
2023-04-05T03:37:31.979Z,101826.78
2023-04-05T03:39:59.567Z,101831.19
2023-04-05T03:42:27.194Z,101825.47
2023-04-05T03:44:54.971Z,101829.94
2023-04-05T03:47:23.940Z,101828.28
2023-04-05T03:49:51.542Z,101834.00
2023-04-05T03:52:19.177Z,101831.31
2023-04-05T03:54:46.790Z,101829.47
2023-04-05T03:57:14.452Z,101835.09
2023-04-05T03:59:42.307Z,101832.91
2023-04-05T04:02:09.985Z,101836.19
2023-04-05T04:04:39.067Z,101830.94
2023-04-05T04:07:06.776Z,101825.34
2023-04-05T04:09:34.384Z,101825.81
2023-04-05T04:12:01.973Z,101818.50
2023-04-05T04:14:29.518Z,101840.91
2023-04-05T04:16:57.270Z,101831.88
2023-04-05T04:19:24.839Z,101831.53
2023-04-05T04:21:55.996Z,101824.84
2023-04-05T04:24:27.329Z,101832.53
2023-04-05T04:26:55.474Z,101831.44
2023-04-05T04:29:31.066Z,101831.94
2023-04-05T04:31:58.695Z,101835.72
2023-04-05T04:34:26.345Z,101826.34
2023-04-05T04:37:01.393Z,101832.91
2023-04-05T04:39:31.431Z,101834.88
2023-04-05T04:41:59.332Z,101829.66
2023-04-05T04:44:31.175Z,101829.03
2023-04-05T04:46:59.233Z,101840.00
2023-04-05T04:49:28.299Z,101837.78
2023-04-05T04:51:59.369Z,101837.78
2023-04-05T04:54:28.705Z,101831.09
2023-04-05T04:56:57.333Z,101839.13
2023-04-05T04:59:24.975Z,101837.44
2023-04-05T05:01:52.632Z,101831.69
2023-04-05T05:04:20.437Z,101834.63
2023-04-05T05:06:50.957Z,101840.69
2023-04-05T05:09:19.943Z,101845.09
2023-04-05T05:11:47.624Z,101847.75
2023-04-05T05:14:15.620Z,101843.38
2023-04-05T05:16:43.272Z,101848.72
2023-04-05T05:19:10.900Z,101843.75
2023-04-05T05:21:38.607Z,101840.81
2023-04-05T05:24:08.550Z,101840.94
2023-04-05T05:26:38.041Z,101844.63
2023-04-05T05:29:05.945Z,101841.19
2023-04-05T05:31:33.871Z,101840.25
2023-04-05T05:34:01.517Z,101840.13
2023-04-05T05:36:29.250Z,101845.31
2023-04-05T05:38:56.954Z,101844.22
2023-04-05T05:41:25.688Z,101841.44
2023-04-05T05:43:56.843Z,101840.94
2023-04-05T05:46:24.635Z,101841.41
2023-04-05T05:48:52.513Z,101837.06
2023-04-05T05:51:20.762Z,101834.13
2023-04-05T05:53:48.656Z,101833.53
2023-04-05T05:56:16.409Z,101833.53
2023-04-05T05:58:44.127Z,101836.09
2023-04-05T06:01:14.432Z,101826.84
2023-04-05T06:03:42.238Z,101836.66
2023-04-05T06:06:11.129Z,101835.91
2023-04-05T06:08:38.843Z,101836.66
2023-04-05T06:11:06.586Z,101823.50
2023-04-05T06:13:34.152Z,101827.41
2023-04-05T06:16:02.576Z,101831.19
2023-04-05T06:18:31.680Z,101827.75
2023-04-05T06:20:59.294Z,101833.59
2023-04-05T06:23:26.994Z,101831.53
2023-04-05T06:25:56.785Z,101830.41
2023-04-05T06:28:24.432Z,101824.09
2023-04-05T06:30:52.023Z,101829.44
2023-04-05T06:33:19.597Z,101830.28
2023-04-05T06:35:48.579Z,101826.03
2023-04-05T06:38:17.521Z,101833.47
2023-04-05T06:40:45.325Z,101831.53
2023-04-05T06:43:13.023Z,101827.47
2023-04-05T06:45:40.995Z,101835.50
2023-04-05T06:48:08.895Z,101831.09
2023-04-05T06:50:36.514Z,101837.88
2023-04-05T06:53:05.633Z,101833.09
2023-04-05T06:55:33.387Z,101833.22
2023-04-05T06:58:01.142Z,101835.91
2023-04-05T07:00:28.761Z,101832.66
2023-04-05T07:02:56.456Z,101834.97
2023-04-05T07:05:24.069Z,101823.13
2023-04-05T07:07:53.184Z,101820.41
2023-04-05T07:10:22.225Z,101821.56
2023-04-05T07:12:49.939Z,101817.81
2023-04-05T07:15:17.727Z,101821.50
2023-04-05T07:17:45.563Z,101814.34
2023-04-05T07:20:13.708Z,101812.50
2023-04-05T07:22:41.339Z,101813.78
2023-04-05T07:25:10.509Z,101811.94
2023-04-05T07:27:39.744Z,101805.66
2023-04-05T07:30:08.755Z,101812.16
2023-04-05T07:32:36.466Z,101807.94
2023-04-05T07:35:04.207Z,101811.78
2023-04-05T07:37:31.804Z,101806.59
2023-04-05T07:39:59.571Z,101809.88
2023-04-05T07:42:28.300Z,101801.28
2023-04-05T07:44:57.413Z,101800.97
2023-04-05T07:47:25.154Z,101802.50
2023-04-05T07:49:52.842Z,101796.28
2023-04-05T07:52:20.475Z,101803.13
2023-04-05T07:54:49.946Z,101803.75
2023-04-05T07:57:18.271Z,101806.44
2023-04-05T07:59:46.224Z,101806.44
2023-04-05T08:02:15.491Z,101806.00
2023-04-05T08:04:43.196Z,101807.25
2023-04-05T08:07:11.208Z,101808.78
2023-04-05T08:09:39.067Z,101805.28
2023-04-05T08:12:07.599Z,101809.84
2023-04-05T08:14:35.322Z,101807.44
2023-04-05T08:17:03.048Z,101803.84
2023-04-05T08:19:32.177Z,101801.59
2023-04-05T08:21:59.963Z,101795.88
2023-04-05T08:24:27.633Z,101793.16
2023-04-05T08:26:56.277Z,101790.03
2023-04-05T08:29:24.174Z,101789.91
2023-04-05T08:31:51.936Z,101796.06
2023-04-05T08:34:19.851Z,101792.50
2023-04-05T08:36:49.017Z,101788.22
2023-04-05T08:39:16.888Z,101787.31
2023-04-05T08:41:56.937Z,101787.78
2023-04-05T08:44:27.433Z,101785.47
2023-04-05T08:46:59.125Z,101788.25
2023-04-05T08:49:27.107Z,101782.59
2023-04-05T08:52:01.355Z,101783.09
2023-04-05T08:54:29.246Z,101780.81
2023-04-05T08:56:59.588Z,101773.50
2023-04-05T08:59:28.368Z,101772.97
2023-04-05T09:01:58.234Z,101782.69
2023-04-05T09:04:31.242Z,101779.84
2023-04-05T09:07:02.544Z,101780.19
2023-04-05T09:09:34.763Z,101774.59
2023-04-05T09:12:04.689Z,101771.19
2023-04-05T09:14:35.184Z,101774.75
2023-04-05T09:17:03.855Z,101777.78
2023-04-05T09:19:31.834Z,101769.25
2023-04-05T09:22:02.320Z,101770.09
2023-04-05T09:24:35.326Z,101771.31
2023-04-05T09:27:07.942Z,101764.69
2023-04-05T09:29:36.228Z,101764.41
2023-04-05T09:32:05.528Z,101766.22
2023-04-05T09:34:36.791Z,101766.56
2023-04-05T09:37:14.156Z,101760.38
2023-04-05T09:39:41.780Z,101759.78
2023-04-05T09:42:11.765Z,101756.63
2023-04-05T09:44:53.198Z,101763.00
2023-04-05T09:47:22.206Z,101759.16
2023-04-05T09:49:50.373Z,101755.22
2023-04-05T09:52:24.556Z,101758.47
2023-04-05T09:54:56.013Z,101754.16
2023-04-05T09:57:26.376Z,101758.16
2023-04-05T09:59:54.473Z,101752.53
2023-04-05T10:02:22.966Z,101750.34
2023-04-05T10:04:50.790Z,101753.19
2023-04-05T10:07:20.042Z,101760.28
2023-04-05T10:09:49.615Z,101746.47
2023-04-05T10:12:26.102Z,101748.13
2023-04-05T10:14:53.776Z,101755.75
2023-04-05T10:17:26.425Z,101748.81
2023-04-05T10:20:03.686Z,101741.28
2023-04-05T10:22:37.493Z,101730.50
2023-04-05T10:25:22.427Z,101736.13
2023-04-05T10:27:54.704Z,101733.84
2023-04-05T10:30:25.652Z,101723.06
2023-04-05T10:33:05.159Z,101728.75
2023-04-05T10:35:39.839Z,101729.19
2023-04-05T10:38:23.515Z,101728.09
2023-04-05T10:40:58.243Z,101724.22
2023-04-05T10:43:27.719Z,101719.97
2023-04-05T10:45:56.181Z,101724.31
2023-04-05T10:48:37.501Z,101715.63
2023-04-05T10:51:05.780Z,101719.16
2023-04-05T10:53:35.116Z,101715.97
2023-04-05T10:56:04.655Z,101709.69
2023-04-05T10:58:34.119Z,101706.06
2023-04-05T11:01:02.267Z,101705.00
2023-04-05T11:03:43.136Z,101698.63
2023-04-05T11:06:25.386Z,101698.63
2023-04-05T11:08:57.560Z,101700.38
2023-04-05T11:11:27.719Z,101701.03
2023-04-05T11:13:56.869Z,101688.88
2023-04-05T11:16:40.537Z,101688.03
2023-04-05T11:19:08.349Z,101691.50
2023-04-05T11:21:36.317Z,101694.59
2023-04-05T11:24:06.862Z,101691.50
2023-04-05T11:26:54.809Z,101691.75
2023-04-05T11:29:56.257Z,101684.47
2023-04-05T11:32:24.654Z,101690.16
2023-04-05T11:35:00.717Z,101681.13
2023-04-05T11:38:06.732Z,101684.00
2023-04-05T11:40:35.895Z,101677.63
2023-04-05T11:43:08.756Z,101672.59
2023-04-05T11:45:37.931Z,101666.53
2023-04-05T11:48:07.280Z,101668.44
2023-04-05T11:50:36.531Z,101664.38
2023-04-05T11:53:14.847Z,101655.09
2023-04-05T11:55:44.316Z,101650.03
2023-04-05T11:58:18.535Z,101649.03
2023-04-05T12:00:47.829Z,101648.34
2023-04-05T12:03:16.706Z,101651.38
2023-04-05T12:05:51.235Z,101646.31
2023-04-05T12:08:19.202Z,101648.69
2023-04-05T12:10:55.059Z,101647.97
2023-04-05T12:13:31.731Z,101638.16
2023-04-05T12:16:00.374Z,101638.69
2023-04-05T12:18:29.699Z,101640.41
2023-04-05T12:20:57.871Z,101644.78
2023-04-05T12:23:26.759Z,101638.19
2023-04-05T12:25:56.113Z,101631.94
2023-04-05T12:28:23.853Z,101633.47
2023-04-05T12:30:54.490Z,101636.16
2023-04-05T12:33:29.194Z,101624.50
2023-04-05T12:35:57.020Z,101619.59
2023-04-05T12:38:27.959Z,101618.91
2023-04-05T12:40:55.899Z,101612.78
2023-04-05T12:43:23.902Z,101611.44
2023-04-05T12:45:56.326Z,101610.91
2023-04-05T12:48:25.987Z,101609.09
2023-04-05T12:50:54.903Z,101603.69
2023-04-05T12:53:25.411Z,101600.66
2023-04-05T12:55:54.681Z,101594.28
2023-04-05T12:58:24.035Z,101602.00
2023-04-05T13:00:53.045Z,101597.94
2023-04-05T13:03:22.562Z,101601.81
2023-04-05T13:05:50.363Z,101597.28
2023-04-05T13:08:18.441Z,101590.66
2023-04-05T13:10:49.240Z,101586.13
2023-04-05T13:13:18.308Z,101578.00
2023-04-05T13:15:46.761Z,101584.72
2023-04-05T13:18:16.494Z,101586.78
2023-04-05T13:20:44.634Z,101581.72
2023-04-05T13:23:12.847Z,101569.91
2023-04-05T13:25:41.382Z,101570.91
2023-04-05T13:28:10.422Z,101568.41
2023-04-05T13:30:38.404Z,101556.94
2023-04-05T13:33:06.117Z,101558.28
2023-04-05T13:35:35.735Z,101557.09
2023-04-05T13:38:04.786Z,101555.25
2023-04-05T13:40:32.777Z,101551.03
2023-04-05T13:43:00.628Z,101549.84
2023-04-05T13:45:28.668Z,101539.53
2023-04-05T13:47:56.861Z,101544.94
2023-04-05T13:50:24.617Z,101538.88
2023-04-05T13:52:53.603Z,101539.53
2023-04-05T13:55:21.373Z,101537.19
2023-04-05T13:57:49.203Z,101531.44
2023-04-05T14:00:17.232Z,101525.69
2023-04-05T14:02:45.385Z,101532.09
2023-04-05T14:05:13.094Z,101526.69
2023-04-05T14:07:40.886Z,101521.81
2023-04-05T14:10:11.575Z,101520.63
2023-04-05T14:12:39.295Z,101514.91
2023-04-05T14:15:08.021Z,101515.22
2023-04-05T14:17:35.778Z,101511.16
2023-04-05T14:20:03.503Z,101516.56
2023-04-05T14:22:31.420Z,101508.81
2023-04-05T14:24:59.000Z,101507.78
2023-04-05T14:27:28.437Z,101502.41
2023-04-05T14:29:57.357Z,101506.25
2023-04-05T14:32:26.564Z,101493.59
2023-04-05T14:34:54.333Z,101502.06
2023-04-05T14:37:22.020Z,101491.59
2023-04-05T14:39:49.652Z,101491.41
2023-04-05T14:42:17.348Z,101497.16
2023-04-05T14:44:46.605Z,101493.75
2023-04-05T14:47:14.292Z,101494.47
2023-04-05T14:49:42.109Z,101491.22
2023-04-05T14:52:09.943Z,101490.03
2023-04-05T14:54:38.542Z,101482.47
2023-04-05T14:57:06.159Z,101485.16
2023-04-05T14:59:34.009Z,101476.72
2023-04-05T15:02:03.120Z,101483.47
2023-04-05T15:04:31.114Z,101483.13
2023-04-05T15:06:58.794Z,101479.78
2023-04-05T15:09:26.545Z,101476.91
2023-04-05T15:11:55.514Z,101474.53
2023-04-05T15:14:31.714Z,101474.00
2023-04-05T15:17:00.171Z,101475.53
2023-04-05T15:19:30.499Z,101474.88
2023-04-05T15:21:58.218Z,101474.19
2023-04-05T15:24:26.043Z,101474.50
2023-04-05T15:26:53.840Z,101477.22
2023-04-05T15:29:21.446Z,101481.44
2023-04-05T15:31:49.151Z,101481.44
2023-04-05T15:34:17.769Z,101472.81
2023-04-05T15:36:49.103Z,101478.38
2023-04-05T15:39:16.893Z,101467.94
2023-04-05T15:41:44.835Z,101474.00
2023-04-05T15:44:12.598Z,101463.19
2023-04-05T15:46:40.524Z,101468.94
2023-04-05T15:49:11.576Z,101473.66
2023-04-05T15:51:41.035Z,101474.03
2023-04-05T15:54:10.256Z,101472.84
2023-04-05T15:56:38.360Z,101471.66
2023-04-05T15:59:07.221Z,101471.66
2023-04-05T16:01:34.970Z,101457.47
2023-04-05T16:04:03.002Z,101462.88
2023-04-05T16:06:31.354Z,101463.34
2023-04-05T16:09:01.504Z,101458.84
2023-04-05T16:11:30.656Z,101459.16
2023-04-05T16:13:58.291Z,101467.78
2023-04-05T16:16:38.789Z,101467.94
2023-04-05T16:19:15.708Z,101470.13
2023-04-05T16:21:43.578Z,101458.47
2023-04-05T16:24:11.594Z,101453.59
2023-04-05T16:26:42.273Z,101449.34
2023-04-05T16:29:09.898Z,101449.72
2023-04-05T16:31:38.331Z,101452.38
2023-04-05T16:34:06.301Z,101455.09
2023-04-05T16:36:34.225Z,101457.00
2023-04-05T16:39:02.420Z,101453.25
2023-04-05T16:41:30.267Z,101449.38
2023-04-05T16:43:59.864Z,101442.97
2023-04-05T16:46:30.628Z,101450.53
2023-04-05T16:48:58.663Z,101446.34
2023-04-05T16:51:26.578Z,101443.81
2023-04-05T16:53:54.571Z,101449.69
2023-04-05T16:56:22.845Z,101453.44
2023-04-05T16:58:51.242Z,101445.66
2023-04-05T17:01:20.686Z,101442.59
2023-04-05T17:03:48.572Z,101446.31
2023-04-05T17:06:16.664Z,101442.97
2023-04-05T17:08:44.423Z,101441.25
2023-04-05T17:11:12.193Z,101448.88
2023-04-05T17:13:41.757Z,101449.03
2023-04-05T17:16:09.485Z,101440.59
2023-04-05T17:18:39.714Z,101439.25
2023-04-05T17:21:07.870Z,101435.69
2023-04-05T17:23:35.718Z,101429.78
2023-04-05T17:26:03.690Z,101431.97
2023-04-05T17:28:32.469Z,101435.50
2023-04-05T17:31:00.921Z,101436.53
2023-04-05T17:33:28.818Z,101436.34
2023-04-05T17:36:00.455Z,101437.03
2023-04-05T17:38:28.236Z,101437.50
2023-04-05T17:40:57.252Z,101431.13
2023-04-05T17:43:25.115Z,101430.94
2023-04-05T17:45:55.324Z,101436.13
2023-04-05T17:48:23.574Z,101445.38
2023-04-05T17:50:52.299Z,101443.50
2023-04-05T17:53:21.703Z,101442.00
2023-04-05T17:55:49.408Z,101444.50
2023-04-05T17:58:17.346Z,101448.72
2023-04-05T18:00:45.202Z,101446.19
2023-04-05T18:03:13.680Z,101444.84
2023-04-05T18:05:41.418Z,101444.84
2023-04-05T18:08:09.127Z,101445.19
2023-04-05T18:10:38.140Z,101443.78
2023-04-05T18:13:06.246Z,101446.28
2023-04-05T18:15:34.054Z,101444.28
2023-04-05T18:18:03.876Z,101446.78
2023-04-05T18:20:31.620Z,101451.03
2023-04-05T18:23:00.296Z,101447.81
2023-04-05T18:25:32.142Z,101453.22
2023-04-05T18:28:12.160Z,101453.56
2023-04-05T18:30:56.848Z,101450.03
2023-04-05T18:33:29.369Z,101450.50
2023-04-05T18:35:57.188Z,101447.44
2023-04-05T18:38:24.951Z,101461.09
2023-04-05T18:41:02.700Z,101459.56
2023-04-05T18:43:32.068Z,101463.25
2023-04-05T18:45:59.984Z,101464.88
2023-04-05T18:48:27.635Z,101463.56
2023-04-05T18:50:55.653Z,101459.16
2023-04-05T18:53:24.058Z,101458.13
2023-04-05T18:55:52.186Z,101462.78
2023-04-05T18:58:21.769Z,101466.13
2023-04-05T19:00:51.522Z,101459.19
2023-04-05T19:03:19.430Z,101460.72
2023-04-05T19:05:51.588Z,101466.97
2023-04-05T19:08:19.967Z,101467.97
2023-04-05T19:10:50.580Z,101465.28
2023-04-05T19:13:18.591Z,101465.66
2023-04-05T19:15:47.025Z,101469.69
2023-04-05T19:18:16.026Z,101468.16
2023-04-05T19:20:48.136Z,101475.69
2023-04-05T19:23:16.109Z,101476.69
2023-04-05T19:25:44.385Z,101477.88
2023-04-05T19:28:12.387Z,101472.59
2023-04-05T19:30:40.359Z,101475.59
2023-04-05T19:33:11.060Z,101475.75
2023-04-05T19:35:41.335Z,101480.47
2023-04-05T19:38:09.282Z,101482.47
2023-04-05T19:40:38.991Z,101479.09
2023-04-05T19:43:08.662Z,101472.03
2023-04-05T19:45:37.795Z,101475.88
2023-04-05T19:48:25.482Z,101475.50
2023-04-05T19:50:59.508Z,101473.97
2023-04-05T19:53:41.751Z,101472.75
2023-04-05T19:56:12.057Z,101470.91
2023-04-05T19:58:40.505Z,101470.06
2023-04-05T20:01:08.973Z,101468.53
2023-04-05T20:03:38.203Z,101474.38
2023-04-05T20:06:09.687Z,101469.16
2023-04-05T20:08:39.356Z,101475.25
2023-04-05T20:11:09.953Z,101475.03
2023-04-05T20:13:42.750Z,101459.88
2023-04-05T20:16:13.315Z,101470.25
2023-04-05T20:18:51.106Z,101467.88
2023-04-05T20:21:21.716Z,101464.34
2023-04-05T20:23:52.443Z,101459.94
2023-04-05T20:26:26.397Z,101465.34
2023-04-05T20:28:58.320Z,101458.56
2023-04-05T20:31:29.582Z,101468.03
2023-04-05T20:33:59.115Z,101468.41
2023-04-05T20:36:34.578Z,101462.19
2023-04-05T20:39:03.919Z,101464.03
2023-04-05T20:41:32.330Z,101467.34
2023-04-05T20:44:00.783Z,101469.50
2023-04-05T20:46:32.479Z,101457.53
2023-04-05T20:49:16.224Z,101463.44
2023-04-05T20:51:51.199Z,101467.03
2023-04-05T20:54:21.085Z,101460.31
2023-04-05T20:56:49.064Z,101459.88
2023-04-05T20:59:17.204Z,101463.22
2023-04-05T21:01:47.149Z,101461.56
2023-04-05T21:04:15.277Z,101462.34
2023-04-05T21:06:44.200Z,101461.97
2023-04-05T21:09:13.176Z,101460.44
2023-04-05T21:11:40.978Z,101450.13
2023-04-05T21:14:09.352Z,101447.59
2023-04-05T21:16:37.494Z,101446.22
2023-04-05T21:19:05.602Z,101457.06
2023-04-05T21:21:33.307Z,101442.06
2023-04-05T21:24:01.022Z,101446.31
2023-04-05T21:26:31.055Z,101449.31
2023-04-05T21:28:58.664Z,101441.63
2023-04-05T21:31:27.009Z,101438.84
2023-04-05T21:33:54.751Z,101443.31
2023-04-05T21:36:22.363Z,101442.94
2023-04-05T21:38:49.982Z,101447.16
2023-04-05T21:41:17.546Z,101443.09
2023-04-05T21:43:46.506Z,101441.81
2023-04-05T21:46:14.177Z,101438.47
2023-04-05T21:48:41.764Z,101437.88
2023-04-05T21:51:09.540Z,101441.06
2023-04-05T21:53:37.127Z,101442.06
2023-04-05T21:56:05.359Z,101438.00
2023-04-05T21:58:33.033Z,101443.84
2023-04-05T22:01:01.995Z,101436.91
2023-04-05T22:03:29.694Z,101432.53
2023-04-05T22:05:57.414Z,101428.47
2023-04-05T22:08:26.666Z,101426.91
2023-04-05T22:10:54.474Z,101431.47
2023-04-05T22:13:22.078Z,101425.69
2023-04-05T22:15:49.752Z,101428.38
2023-04-05T22:18:18.653Z,101424.00
2023-04-05T22:20:46.273Z,101421.75
2023-04-05T22:23:13.913Z,101421.91
2023-04-05T22:25:41.787Z,101421.13
2023-04-05T22:28:09.567Z,101421.19
2023-04-05T22:33:08.429Z,101428.81
2023-04-05T22:35:37.482Z,101420.88
2023-04-05T22:38:05.319Z,101415.22
2023-04-05T22:40:32.996Z,101423.28
2023-04-05T22:43:00.740Z,101415.88
2023-04-05T22:45:28.704Z,101419.13
2023-04-05T22:47:56.824Z,101425.09
2023-04-05T22:50:24.589Z,101414.66
2023-04-05T22:52:53.629Z,101406.75
2023-04-05T22:55:21.458Z,101411.00
2023-04-05T22:57:49.716Z,101411.44
2023-04-05T23:00:17.818Z,101412.19
2023-04-05T23:02:45.596Z,101403.13
2023-04-05T23:05:13.612Z,101403.97
2023-04-05T23:07:41.259Z,101402.97
2023-04-05T23:10:11.459Z,101406.66
2023-04-05T23:12:39.072Z,101399.59
2023-04-05T23:15:07.811Z,101407.66
2023-04-05T23:17:35.506Z,101397.91
2023-04-05T23:20:05.813Z,101396.06
2023-04-05T23:22:33.600Z,101393.22
2023-04-05T23:25:02.298Z,101394.94
2023-04-05T23:27:31.891Z,101391.84
2023-04-05T23:29:59.488Z,101391.44
2023-04-05T23:32:27.083Z,101389.06
2023-04-05T23:34:54.741Z,101387.03
2023-04-05T23:37:22.367Z,101380.91
2023-04-05T23:39:49.937Z,101384.16
2023-04-05T23:42:17.606Z,101387.41
2023-04-05T23:44:46.554Z,101382.63
2023-04-05T23:47:14.173Z,101384.34
2023-04-05T23:49:41.892Z,101375.59
2023-04-05T23:52:09.558Z,101376.44
2023-04-05T23:54:37.202Z,101382.16
2023-04-05T23:57:05.033Z,101372.69
2023-04-05T23:59:32.648Z,101375.78
